createdAt,value
2024-04-16T00:00:18.305Z,7.52
2024-04-16T00:01:20.551Z,7.53
2024-04-16T00:02:22.539Z,7.55
2024-04-16T00:03:24.592Z,7.46
2024-04-16T00:04:26.637Z,7.48
2024-04-16T00:05:29.618Z,7.49
2024-04-16T00:06:32.372Z,7.52
2024-04-16T00:07:34.359Z,7.56
2024-04-16T00:08:36.294Z,7.51
2024-04-16T00:09:38.237Z,7.51
2024-04-16T00:10:40.469Z,7.56
2024-04-16T00:11:42.694Z,7.69
2024-04-16T00:12:44.634Z,7.65
2024-04-16T00:13:46.558Z,7.73
2024-04-16T00:14:48.573Z,7.75
2024-04-16T00:15:50.561Z,7.73
2024-04-16T00:16:52.559Z,7.75
2024-04-16T00:17:54.614Z,7.70
2024-04-16T00:18:56.635Z,7.69
2024-04-16T00:19:58.664Z,7.73
2024-04-16T00:21:00.657Z,7.86
2024-04-16T00:22:02.937Z,7.80
2024-04-16T00:23:05.097Z,7.80
2024-04-16T00:24:07.131Z,7.89
2024-04-16T00:25:10.302Z,7.90
2024-04-16T00:26:12.294Z,7.90
2024-04-16T00:27:14.380Z,7.94
2024-04-16T00:28:16.489Z,7.94
2024-04-16T00:29:19.176Z,8.01
2024-04-16T00:30:21.091Z,7.99
2024-04-16T00:31:23.041Z,8.03
2024-04-16T00:32:25.561Z,8.01
2024-04-16T00:33:27.694Z,8.03
2024-04-16T00:34:29.771Z,8.11
2024-04-16T00:35:31.824Z,8.17
2024-04-16T00:36:33.890Z,8.17
2024-04-16T00:37:35.907Z,8.08
2024-04-16T00:38:37.873Z,8.17
2024-04-16T00:39:39.812Z,8.25
2024-04-16T00:40:41.869Z,8.24
2024-04-16T00:41:43.966Z,8.21
2024-04-16T00:42:49.617Z,8.21
2024-04-16T00:43:51.652Z,8.20
2024-04-16T00:44:53.677Z,8.18
2024-04-16T00:45:56.572Z,8.29
2024-04-16T00:46:58.748Z,8.31
2024-04-16T00:48:00.998Z,8.28
2024-04-16T00:49:03.161Z,8.29
2024-04-16T00:50:05.684Z,8.39
2024-04-16T00:51:08.131Z,8.34
2024-04-16T00:52:10.542Z,8.45
2024-04-16T00:53:13.112Z,8.42
2024-04-16T00:54:15.042Z,8.49
2024-04-16T00:55:17.025Z,8.52
2024-04-16T00:56:19.113Z,8.46
2024-04-16T00:57:21.053Z,8.44
2024-04-16T00:58:23.133Z,8.35
2024-04-16T00:59:25.393Z,8.25
2024-04-16T01:00:27.460Z,8.41
2024-04-16T01:01:29.558Z,8.44
2024-04-16T01:02:31.605Z,8.50
2024-04-16T01:03:33.601Z,8.52
2024-04-16T01:04:35.753Z,8.39
2024-04-16T01:05:38.134Z,8.49
2024-04-16T01:06:40.112Z,8.52
2024-04-16T01:07:42.135Z,8.58
2024-04-16T01:08:44.151Z,8.60
2024-04-16T01:09:46.128Z,8.50
2024-04-16T01:10:48.060Z,8.58
2024-04-16T01:11:50.090Z,8.60
2024-04-16T01:12:52.113Z,8.63
2024-04-16T01:13:56.907Z,8.56
2024-04-16T01:14:58.855Z,8.49
2024-04-16T01:16:00.914Z,8.39
2024-04-16T01:17:02.919Z,8.53
2024-04-16T01:18:07.700Z,8.56
2024-04-16T01:19:09.958Z,8.59
2024-04-16T01:20:12.598Z,8.58
2024-04-16T01:21:14.655Z,8.56
2024-04-16T01:22:16.706Z,8.58
2024-04-16T01:23:18.821Z,8.45
2024-04-16T01:24:22.405Z,8.49
2024-04-16T01:25:24.426Z,8.56
2024-04-16T01:26:26.478Z,8.55
2024-04-16T01:27:28.467Z,8.62
2024-04-16T01:28:30.483Z,8.60
2024-04-16T01:29:32.413Z,8.63
2024-04-16T01:30:34.528Z,8.65
2024-04-16T01:31:36.629Z,8.59
2024-04-16T01:32:38.870Z,8.46
2024-04-16T01:33:40.960Z,8.41
2024-04-16T01:34:43.144Z,8.39
2024-04-16T01:35:45.157Z,8.14
2024-04-16T01:36:47.073Z,8.11
2024-04-16T01:37:49.111Z,8.13
2024-04-16T01:38:51.074Z,7.97
2024-04-16T01:39:53.024Z,7.76
2024-04-16T01:40:54.976Z,7.66
2024-04-16T01:41:57.018Z,7.78
2024-04-16T01:42:58.997Z,7.62
2024-04-16T01:44:01.338Z,7.53
2024-04-16T01:45:03.555Z,7.52
2024-04-16T01:46:05.936Z,7.58
2024-04-16T01:47:07.871Z,7.53
2024-04-16T01:48:09.883Z,7.63
2024-04-16T01:49:12.015Z,7.70
2024-04-16T01:50:13.998Z,7.75
2024-04-16T01:51:15.969Z,7.71
2024-04-16T01:52:17.896Z,7.71
2024-04-16T01:53:19.850Z,7.80
2024-04-16T01:54:21.872Z,7.82
2024-04-16T01:55:23.824Z,7.82
2024-04-16T01:56:25.779Z,7.78
2024-04-16T01:57:27.801Z,7.85
2024-04-16T01:58:29.882Z,7.87
2024-04-16T01:59:31.868Z,7.89
2024-04-16T02:00:33.870Z,7.91
2024-04-16T02:01:35.897Z,7.91
2024-04-16T02:02:38.199Z,7.90
2024-04-16T02:03:40.258Z,7.89
2024-04-16T02:04:42.285Z,8.01
2024-04-16T02:05:44.320Z,8.00
2024-04-16T02:06:46.274Z,7.97
2024-04-16T02:07:48.272Z,7.79
2024-04-16T02:08:50.304Z,7.82
2024-04-16T02:09:52.263Z,7.85
2024-04-16T02:10:59.421Z,7.70
2024-04-16T02:12:01.515Z,7.83
2024-04-16T02:13:03.584Z,7.82
2024-04-16T02:14:05.729Z,7.93
2024-04-16T02:15:08.009Z,7.97
2024-04-16T02:16:10.628Z,8.03
2024-04-16T02:17:12.800Z,8.01
2024-04-16T02:18:17.214Z,8.04
2024-04-16T02:19:19.276Z,7.90
2024-04-16T02:20:21.214Z,7.76
2024-04-16T02:21:23.203Z,7.85
2024-04-16T02:22:25.164Z,7.90
2024-04-16T02:23:27.237Z,7.90
2024-04-16T02:24:29.176Z,7.89
2024-04-16T02:25:31.266Z,8.01
2024-04-16T02:26:33.311Z,7.97
2024-04-16T02:27:35.347Z,8.08
2024-04-16T02:28:37.333Z,8.06
2024-04-16T02:29:39.319Z,8.00
2024-04-16T02:30:42.380Z,8.03
2024-04-16T02:31:44.500Z,8.10
2024-04-16T02:32:46.615Z,8.08
2024-04-16T02:33:48.587Z,7.96
2024-04-16T02:34:50.582Z,7.96
2024-04-16T02:35:52.655Z,7.96
2024-04-16T02:36:54.597Z,7.96
2024-04-16T02:37:56.884Z,8.01
2024-04-16T02:38:58.876Z,7.91
2024-04-16T02:40:00.970Z,7.87
2024-04-16T02:41:03.062Z,7.99
2024-04-16T02:42:05.146Z,7.90
2024-04-16T02:43:07.095Z,7.78
2024-04-16T02:44:09.092Z,7.83
2024-04-16T02:45:11.053Z,7.93
2024-04-16T02:46:13.180Z,7.93
2024-04-16T02:47:15.192Z,8.07
2024-04-16T02:48:17.213Z,8.03
2024-04-16T02:49:19.147Z,7.99
2024-04-16T02:50:21.766Z,7.96
2024-04-16T02:51:23.793Z,8.00
2024-04-16T02:52:25.827Z,8.06
2024-04-16T02:53:28.251Z,8.06
2024-04-16T02:54:30.256Z,8.07
2024-04-16T02:55:32.525Z,8.06
2024-04-16T02:56:34.570Z,7.80
2024-04-16T02:57:36.559Z,7.85
2024-04-16T02:58:38.611Z,7.94
2024-04-16T02:59:40.608Z,8.04
2024-04-16T03:00:42.639Z,7.99
2024-04-16T03:01:44.664Z,8.04
2024-04-16T03:02:46.696Z,8.00
2024-04-16T03:03:48.737Z,8.00
2024-04-16T03:04:50.792Z,7.97
2024-04-16T03:05:56.327Z,8.11
2024-04-16T03:06:58.306Z,8.11
2024-04-16T03:08:00.321Z,8.13
2024-04-16T03:09:02.297Z,8.21
2024-04-16T03:10:04.465Z,8.17
2024-04-16T03:11:06.536Z,8.16
2024-04-16T03:12:08.664Z,8.00
2024-04-16T03:13:10.651Z,7.69
2024-04-16T03:14:12.702Z,7.85
2024-04-16T03:15:14.682Z,7.89
2024-04-16T03:16:16.954Z,7.94
2024-04-16T03:17:18.995Z,7.94
2024-04-16T03:18:21.072Z,8.08
2024-04-16T03:19:23.146Z,7.96
2024-04-16T03:20:25.176Z,8.00
2024-04-16T03:21:27.176Z,7.96
2024-04-16T03:22:29.167Z,8.06
2024-04-16T03:23:31.235Z,8.14
2024-04-16T03:24:33.183Z,8.13
2024-04-16T03:25:41.340Z,8.04
2024-04-16T03:26:43.262Z,8.03
2024-04-16T03:27:45.261Z,8.16
2024-04-16T03:28:47.355Z,8.20
2024-04-16T03:29:49.351Z,8.11
2024-04-16T03:30:52.082Z,8.21
2024-04-16T03:31:54.087Z,8.22
2024-04-16T03:32:56.201Z,8.20
2024-04-16T03:33:58.200Z,8.10
2024-04-16T03:35:00.731Z,8.06
2024-04-16T03:36:02.784Z,8.07
2024-04-16T03:37:04.969Z,8.06
2024-04-16T03:38:06.920Z,8.06
2024-04-16T03:39:08.854Z,8.10
2024-04-16T03:40:10.942Z,8.14
2024-04-16T03:41:13.085Z,8.14
2024-04-16T03:42:14.970Z,8.01
2024-04-16T03:43:16.999Z,7.86
2024-04-16T03:44:18.901Z,7.96
2024-04-16T03:45:20.919Z,7.99
2024-04-16T03:46:23.076Z,8.01
2024-04-16T03:47:25.128Z,8.03
2024-04-16T03:48:27.206Z,8.03
2024-04-16T03:49:29.151Z,7.96
2024-04-16T03:50:31.189Z,8.03
2024-04-16T03:51:33.172Z,7.94
2024-04-16T03:52:35.291Z,8.01
2024-04-16T03:53:37.412Z,8.06
2024-04-16T03:54:39.498Z,8.08
2024-04-16T03:55:41.712Z,8.18
2024-04-16T03:56:44.408Z,8.16
2024-04-16T03:57:46.327Z,7.96
2024-04-16T03:59:17.743Z,8.01
2024-04-16T04:00:38.268Z,8.08
2024-04-16T04:01:40.326Z,8.01
2024-04-16T04:02:42.479Z,8.14
2024-04-16T04:03:44.711Z,8.07
2024-04-16T04:04:46.792Z,8.03
2024-04-16T04:05:49.024Z,8.00
2024-04-16T04:06:51.002Z,8.00
2024-04-16T04:07:52.966Z,7.99
2024-04-16T04:08:54.923Z,7.87
2024-04-16T04:09:56.844Z,7.89
2024-04-16T04:10:59.069Z,7.94
2024-04-16T04:12:01.119Z,7.89
2024-04-16T04:13:03.133Z,7.97
2024-04-16T04:14:05.061Z,7.83
2024-04-16T04:15:07.130Z,7.87
2024-04-16T04:16:09.149Z,8.01
2024-04-16T04:17:11.229Z,7.96
2024-04-16T04:18:13.351Z,7.97
2024-04-16T04:19:15.377Z,7.93
2024-04-16T04:20:17.327Z,7.94
2024-04-16T04:21:19.418Z,8.03
2024-04-16T04:22:21.440Z,8.07
2024-04-16T04:23:23.439Z,8.11
2024-04-16T04:24:34.103Z,7.99
2024-04-16T04:25:37.480Z,8.07
2024-04-16T04:26:39.588Z,8.18
2024-04-16T04:27:44.826Z,8.07
2024-04-16T04:28:46.769Z,8.00
2024-04-16T04:29:48.683Z,7.97
2024-04-16T04:30:52.288Z,7.93
2024-04-16T04:31:54.253Z,8.00
2024-04-16T04:32:56.335Z,8.03
2024-04-16T04:33:58.525Z,8.08
2024-04-16T04:35:01.298Z,8.03
2024-04-16T04:36:03.317Z,8.00
2024-04-16T04:37:05.391Z,7.99
2024-04-16T04:38:07.360Z,8.00
2024-04-16T04:39:09.366Z,8.06
2024-04-16T04:40:11.696Z,8.11
2024-04-16T04:41:13.774Z,7.99
2024-04-16T04:42:15.685Z,7.97
2024-04-16T04:43:17.649Z,8.07
2024-04-16T04:44:19.830Z,8.08
2024-04-16T04:45:21.820Z,8.10
2024-04-16T04:46:23.893Z,8.06
2024-04-16T04:47:26.459Z,7.96
2024-04-16T04:48:28.612Z,7.91
2024-04-16T04:49:30.676Z,7.93
2024-04-16T04:50:32.680Z,8.03
2024-04-16T04:51:34.674Z,7.96
2024-04-16T04:52:36.735Z,7.90
2024-04-16T04:53:38.918Z,7.89
2024-04-16T04:54:40.958Z,7.87
2024-04-16T04:55:42.978Z,7.89
2024-04-16T04:56:45.434Z,7.73
2024-04-16T04:57:47.433Z,7.78
2024-04-16T04:58:49.371Z,7.71
2024-04-16T04:59:51.537Z,7.79
2024-04-16T05:00:53.568Z,7.73
2024-04-16T05:01:55.660Z,7.69
2024-04-16T05:02:57.673Z,7.85
2024-04-16T05:03:59.645Z,7.79
2024-04-16T05:05:01.792Z,7.71
2024-04-16T05:06:03.925Z,7.73
2024-04-16T05:07:06.728Z,7.73
2024-04-16T05:08:08.718Z,7.75
2024-04-16T05:09:10.901Z,7.82
2024-04-16T05:10:12.913Z,7.66
2024-04-16T05:11:15.224Z,7.60
2024-04-16T05:12:17.170Z,7.67
2024-04-16T05:13:19.180Z,7.67
2024-04-16T05:14:21.297Z,7.65
2024-04-16T05:15:23.400Z,7.67
2024-04-16T05:16:25.499Z,7.62
2024-04-16T05:17:28.298Z,7.67
2024-04-16T05:18:30.513Z,7.78
2024-04-16T05:19:32.703Z,7.78
2024-04-16T05:20:34.898Z,7.80
2024-04-16T05:21:36.925Z,7.73
2024-04-16T05:22:39.154Z,7.90
2024-04-16T05:23:41.238Z,7.80
2024-04-16T05:24:43.236Z,7.71
2024-04-16T05:25:53.181Z,7.79
2024-04-16T05:26:55.226Z,7.71
2024-04-16T05:27:57.174Z,7.79
2024-04-16T05:28:59.238Z,7.60
2024-04-16T05:30:01.239Z,7.67
2024-04-16T05:31:03.449Z,7.70
2024-04-16T05:32:11.293Z,7.71
2024-04-16T05:33:13.457Z,7.70
2024-04-16T05:34:15.508Z,7.65
2024-04-16T05:35:19.542Z,7.51
2024-04-16T05:36:21.797Z,7.55
2024-04-16T05:37:23.894Z,7.58
2024-04-16T05:38:26.111Z,7.46
2024-04-16T05:39:28.093Z,7.51
2024-04-16T05:40:30.168Z,7.45
2024-04-16T05:41:32.201Z,7.42
2024-04-16T05:42:34.226Z,7.48
2024-04-16T05:43:36.530Z,7.49
2024-04-16T05:44:38.558Z,7.38
2024-04-16T05:45:40.932Z,7.32
2024-04-16T05:46:43.068Z,7.41
2024-04-16T05:47:45.195Z,7.43
2024-04-16T05:48:49.373Z,7.43
2024-04-16T05:49:51.409Z,7.52
2024-04-16T05:50:53.432Z,7.60
2024-04-16T05:51:56.318Z,7.65
2024-04-16T05:52:58.273Z,7.52
2024-04-16T05:54:02.050Z,7.59
2024-04-16T05:55:05.643Z,7.52
2024-04-16T05:56:07.780Z,7.43
2024-04-16T05:57:09.866Z,7.45
2024-04-16T05:58:15.598Z,7.36
2024-04-16T05:59:17.615Z,7.36
2024-04-16T06:00:19.564Z,7.25
2024-04-16T06:01:21.813Z,7.20
2024-04-16T06:02:24.053Z,7.17
2024-04-16T06:03:26.100Z,7.08
2024-04-16T06:04:28.740Z,7.17
2024-04-16T06:05:30.739Z,7.17
2024-04-16T06:06:32.829Z,7.11
2024-04-16T06:07:35.020Z,7.04
2024-04-16T06:08:37.232Z,7.11
2024-04-16T06:09:39.342Z,7.07
2024-04-16T06:10:41.492Z,7.00
2024-04-16T06:11:43.773Z,7.04
2024-04-16T06:12:45.790Z,6.93
2024-04-16T06:13:48.205Z,6.89
2024-04-16T06:14:50.311Z,6.90
2024-04-16T06:15:52.413Z,7.04
2024-04-16T06:16:54.622Z,7.04
2024-04-16T06:17:56.754Z,7.03
2024-04-16T06:18:58.798Z,7.00
2024-04-16T06:20:00.776Z,7.00
2024-04-16T06:21:02.831Z,7.00
2024-04-16T06:22:04.938Z,6.91
2024-04-16T06:23:07.051Z,6.90
2024-04-16T06:24:09.069Z,6.80
2024-04-16T06:25:12.075Z,6.83
2024-04-16T06:26:14.032Z,6.80
2024-04-16T06:27:16.089Z,6.76
2024-04-16T06:28:18.070Z,6.90
2024-04-16T06:29:20.027Z,6.87
2024-04-16T06:30:22.647Z,6.91
2024-04-16T06:31:24.697Z,6.96
2024-04-16T06:32:26.893Z,6.83
2024-04-16T06:33:34.702Z,6.97
2024-04-16T06:34:36.776Z,6.99
2024-04-16T06:35:38.943Z,7.05
2024-04-16T06:36:44.190Z,7.00
2024-04-16T06:37:46.511Z,7.04
2024-04-16T06:38:48.483Z,7.04
2024-04-16T06:39:50.641Z,7.12
2024-04-16T06:40:53.084Z,7.04
2024-04-16T06:41:55.189Z,7.07
2024-04-16T06:42:57.183Z,7.11
2024-04-16T06:43:59.235Z,7.14
2024-04-16T06:45:01.354Z,7.14
2024-04-16T06:46:03.847Z,7.20
2024-04-16T06:47:05.862Z,7.17
2024-04-16T06:48:08.094Z,7.17
2024-04-16T06:49:17.165Z,7.31
2024-04-16T06:50:21.745Z,7.25
2024-04-16T06:51:23.820Z,7.30
2024-04-16T06:52:25.910Z,7.46
2024-04-16T06:53:27.956Z,7.38
2024-04-16T06:54:29.982Z,7.32
2024-04-16T06:55:32.248Z,7.24
2024-04-16T06:56:35.660Z,7.27
2024-04-16T06:57:37.838Z,7.30
2024-04-16T06:58:40.051Z,7.30
2024-04-16T06:59:42.209Z,7.46
2024-04-16T07:00:44.526Z,7.56
2024-04-16T07:01:46.568Z,7.51
2024-04-16T07:02:48.707Z,7.66
2024-04-16T07:03:50.787Z,7.71
2024-04-16T07:04:52.891Z,7.86
2024-04-16T07:05:54.858Z,7.99
2024-04-16T07:06:58.642Z,8.01
2024-04-16T07:08:01.768Z,8.06
2024-04-16T07:09:06.218Z,8.18
2024-04-16T07:10:09.884Z,8.17
2024-04-16T07:11:12.282Z,8.04
2024-04-16T07:12:14.254Z,8.03
2024-04-16T07:13:19.747Z,8.20
2024-04-16T07:14:22.172Z,8.16
2024-04-16T07:15:24.147Z,8.13
2024-04-16T07:16:27.967Z,8.04
2024-04-16T07:17:32.005Z,7.83
2024-04-16T07:18:34.036Z,7.79
2024-04-16T07:19:36.222Z,7.83
2024-04-16T07:20:40.012Z,7.67
2024-04-16T07:21:42.226Z,7.70
2024-04-16T07:22:44.332Z,7.70
2024-04-16T07:23:46.473Z,7.87
2024-04-16T07:24:48.482Z,7.91
2024-04-16T07:25:50.494Z,7.89
2024-04-16T07:26:52.589Z,7.83
2024-04-16T07:27:55.027Z,7.93
2024-04-16T07:28:57.161Z,7.93
2024-04-16T07:29:59.162Z,8.03
2024-04-16T07:31:06.085Z,8.03
2024-04-16T07:32:12.378Z,8.10
2024-04-16T07:33:14.807Z,8.20
2024-04-16T07:34:17.041Z,8.25
2024-04-16T07:35:19.284Z,8.27
2024-04-16T07:36:21.358Z,8.24
2024-04-16T07:37:23.393Z,8.38
2024-04-16T07:38:25.375Z,8.38
2024-04-16T07:39:27.394Z,8.29
2024-04-16T07:40:29.473Z,8.45
2024-04-16T07:41:31.568Z,8.45
2024-04-16T07:42:33.619Z,8.55
2024-04-16T07:43:36.141Z,8.59
2024-04-16T07:44:38.148Z,8.59
2024-04-16T07:45:40.868Z,8.73
2024-04-16T07:46:43.151Z,8.68
2024-04-16T07:47:45.259Z,8.69
2024-04-16T07:48:47.446Z,8.70
2024-04-16T07:49:49.595Z,8.66
2024-04-16T07:50:51.726Z,8.75
2024-04-16T07:51:53.828Z,8.79
2024-04-16T07:52:55.894Z,8.75
2024-04-16T07:53:57.894Z,8.81
2024-04-16T07:55:00.036Z,8.92
2024-04-16T07:56:02.092Z,9.04
2024-04-16T07:57:04.130Z,8.95
2024-04-16T07:58:06.136Z,8.97
2024-04-16T07:59:08.312Z,8.93
2024-04-16T08:00:11.074Z,9.01
2024-04-16T08:01:16.279Z,9.06
2024-04-16T08:02:18.389Z,8.89
2024-04-16T08:03:20.467Z,8.95
2024-04-16T08:04:22.528Z,8.99
2024-04-16T08:05:24.927Z,9.04
2024-04-16T08:06:26.962Z,8.93
2024-04-16T08:07:29.467Z,8.95
2024-04-16T08:08:35.975Z,8.96
2024-04-16T08:09:39.331Z,8.93
2024-04-16T08:10:41.466Z,8.69
2024-04-16T08:11:43.602Z,8.75
2024-04-16T08:12:45.711Z,8.79
2024-04-16T08:13:48.302Z,8.83
2024-04-16T08:14:50.267Z,8.79
2024-04-16T08:15:52.291Z,8.81
2024-04-16T08:16:54.298Z,8.77
2024-04-16T08:17:56.419Z,8.95
2024-04-16T08:18:58.428Z,8.87
2024-04-16T08:20:00.650Z,8.79
2024-04-16T08:21:02.672Z,8.81
2024-04-16T08:22:08.900Z,8.90
2024-04-16T08:23:13.247Z,9.00
2024-04-16T08:24:15.419Z,9.04
2024-04-16T08:25:17.463Z,9.08
2024-04-16T08:26:19.487Z,9.04
2024-04-16T08:27:22.402Z,9.08
2024-04-16T08:28:24.442Z,9.11
2024-04-16T08:29:26.491Z,9.06
2024-04-16T08:30:28.513Z,9.13
2024-04-16T08:31:31.355Z,9.17
2024-04-16T08:32:33.536Z,9.21
2024-04-16T08:33:35.875Z,9.32
2024-04-16T08:34:40.814Z,9.28
2024-04-16T08:35:43.653Z,9.42
2024-04-16T08:36:45.740Z,9.55
2024-04-16T08:37:47.767Z,9.72
2024-04-16T08:38:49.917Z,9.67
2024-04-16T08:39:51.987Z,9.61
2024-04-16T08:40:54.081Z,9.66
2024-04-16T08:41:58.627Z,9.63
2024-04-16T08:43:01.241Z,9.42
2024-04-16T08:44:06.405Z,9.46
2024-04-16T08:45:12.313Z,9.49
2024-04-16T08:46:14.949Z,9.51
2024-04-16T08:47:17.517Z,9.56
2024-04-16T08:48:20.924Z,9.56
2024-04-16T08:49:24.848Z,9.55
2024-04-16T08:50:29.711Z,9.54
2024-04-16T08:51:32.948Z,9.49
2024-04-16T08:52:35.408Z,9.61
2024-04-16T08:53:37.614Z,9.59
2024-04-16T08:54:40.296Z,9.58
2024-04-16T08:55:43.051Z,9.39
2024-04-16T08:56:45.714Z,9.44
2024-04-16T08:57:47.914Z,9.38
2024-04-16T08:58:50.130Z,9.38
2024-04-16T08:59:52.346Z,9.30
2024-04-16T09:00:55.041Z,9.31
2024-04-16T09:01:57.517Z,9.44
2024-04-16T09:02:59.500Z,9.39
2024-04-16T09:04:01.628Z,9.45
2024-04-16T09:05:04.474Z,9.51
2024-04-16T09:06:06.690Z,9.75
2024-04-16T09:07:09.196Z,9.89
2024-04-16T09:08:11.301Z,9.86
2024-04-16T09:09:13.478Z,9.92
2024-04-16T09:10:23.007Z,10.00
2024-04-16T09:11:24.952Z,9.97
2024-04-16T09:12:26.975Z,10.06
2024-04-16T09:13:29.164Z,10.06
2024-04-16T09:14:31.594Z,10.03
2024-04-16T09:15:37.984Z,10.20
2024-04-16T09:16:40.319Z,10.18
2024-04-16T09:17:55.319Z,10.07
2024-04-16T09:19:12.070Z,10.20
2024-04-16T09:20:20.984Z,10.35
2024-04-16T09:21:22.912Z,10.42
2024-04-16T09:22:26.356Z,10.34
2024-04-16T09:23:28.568Z,10.46
2024-04-16T09:24:30.559Z,10.34
2024-04-16T09:25:32.643Z,10.42
2024-04-16T09:26:35.011Z,10.48
2024-04-16T09:27:37.039Z,10.30
2024-04-16T09:28:39.598Z,10.24
2024-04-16T09:29:41.717Z,10.21
2024-04-16T09:30:54.381Z,10.33
2024-04-16T09:32:05.209Z,10.33
2024-04-16T09:33:11.400Z,10.41
2024-04-16T09:34:14.705Z,10.46
2024-04-16T09:35:25.869Z,10.45
2024-04-16T09:36:27.906Z,10.35
2024-04-16T09:37:30.023Z,10.37
2024-04-16T09:38:40.892Z,10.24
2024-04-16T09:39:43.546Z,10.10
2024-04-16T09:40:46.449Z,10.16
2024-04-16T09:41:52.101Z,10.04
2024-04-16T09:42:54.349Z,10.10
2024-04-16T09:43:56.561Z,10.03
2024-04-16T09:44:59.501Z,10.07
2024-04-16T09:46:02.327Z,9.85
2024-04-16T09:47:05.378Z,9.78
2024-04-16T09:48:07.932Z,9.85
2024-04-16T09:49:10.921Z,9.82
2024-04-16T09:50:21.669Z,10.02
2024-04-16T09:51:37.333Z,10.04
2024-04-16T09:52:39.873Z,10.21
2024-04-16T09:53:45.456Z,10.31
2024-04-16T09:54:50.099Z,10.28
2024-04-16T09:55:53.614Z,10.27
2024-04-16T09:56:57.963Z,10.23
2024-04-16T09:58:01.771Z,10.17
2024-04-16T09:59:04.236Z,10.00
2024-04-16T10:00:07.315Z,10.00
2024-04-16T10:01:10.518Z,9.92
2024-04-16T10:02:13.312Z,9.83
2024-04-16T10:03:15.816Z,9.79
2024-04-16T10:04:18.082Z,9.63
2024-04-16T10:05:20.233Z,9.69
2024-04-16T10:06:22.286Z,9.70
2024-04-16T10:07:24.637Z,9.78
2024-04-16T10:08:27.522Z,9.63
2024-04-16T10:09:30.535Z,9.63
2024-04-16T10:10:32.609Z,9.62
2024-04-16T10:11:35.007Z,9.61
2024-04-16T10:12:38.920Z,9.69
2024-04-16T10:13:41.271Z,9.69
2024-04-16T10:14:44.942Z,9.63
2024-04-16T10:15:47.940Z,9.46
2024-04-16T10:16:50.245Z,9.52
2024-04-16T10:17:53.669Z,9.58
2024-04-16T10:18:59.011Z,9.55
2024-04-16T10:20:12.943Z,9.46
2024-04-16T10:21:22.638Z,9.48
2024-04-16T10:22:27.707Z,9.59
2024-04-16T10:23:32.994Z,9.75
2024-04-16T10:24:36.958Z,9.46
2024-04-16T10:25:38.988Z,9.54
2024-04-16T10:26:44.216Z,9.54
2024-04-16T10:27:49.864Z,9.63
2024-04-16T10:28:55.873Z,9.63
2024-04-16T10:30:12.720Z,9.61
2024-04-16T10:31:16.951Z,9.61
2024-04-16T10:32:21.218Z,9.67
2024-04-16T10:33:26.732Z,9.67
2024-04-16T10:34:29.644Z,9.54
2024-04-16T10:35:33.477Z,9.54
2024-04-16T10:36:37.186Z,9.42
2024-04-16T10:37:39.259Z,9.58
2024-04-16T10:38:43.337Z,9.51
2024-04-16T10:39:45.742Z,9.46
2024-04-16T10:40:59.848Z,9.44
2024-04-16T10:42:03.570Z,9.51
2024-04-16T10:43:09.621Z,9.59
2024-04-16T10:44:13.016Z,9.52
2024-04-16T10:45:15.218Z,9.59
2024-04-16T10:46:17.281Z,9.49
2024-04-16T10:47:19.486Z,9.51
2024-04-16T10:48:22.156Z,9.48
2024-04-16T10:49:24.746Z,9.45
2024-04-16T10:50:26.855Z,9.48
2024-04-16T10:51:30.314Z,9.63
2024-04-16T10:52:32.352Z,9.48
2024-04-16T10:53:34.451Z,9.58
2024-04-16T10:54:36.687Z,9.61
2024-04-16T10:55:39.535Z,9.63
2024-04-16T10:56:43.065Z,9.79
2024-04-16T10:57:46.509Z,9.87
2024-04-16T10:58:48.901Z,9.96
2024-04-16T10:59:58.210Z,10.17
2024-04-16T11:01:07.612Z,10.33
2024-04-16T11:02:09.824Z,10.42
2024-04-16T11:03:12.062Z,10.31
2024-04-16T11:04:14.824Z,10.44
2024-04-16T11:05:23.194Z,10.38
2024-04-16T11:06:25.168Z,10.33
2024-04-16T11:07:27.223Z,10.24
2024-04-16T11:08:29.280Z,10.10
2024-04-16T11:09:31.267Z,10.06
2024-04-16T11:10:33.405Z,9.90
2024-04-16T11:11:35.654Z,10.02
2024-04-16T11:12:37.684Z,10.09
2024-04-16T11:13:39.762Z,10.24
2024-04-16T11:14:43.975Z,10.23
2024-04-16T11:15:46.503Z,10.21
2024-04-16T11:16:49.503Z,10.20
2024-04-16T11:17:51.684Z,10.24
2024-04-16T11:18:54.165Z,10.37
2024-04-16T11:19:58.032Z,10.38
2024-04-16T11:21:00.124Z,10.46
2024-04-16T11:22:02.224Z,10.48
2024-04-16T11:23:06.311Z,10.45
2024-04-16T11:24:09.163Z,10.46
2024-04-16T11:25:15.435Z,10.62
2024-04-16T11:26:17.506Z,10.73
2024-04-16T11:27:19.657Z,10.82
2024-04-16T11:28:21.650Z,10.68
2024-04-16T11:29:23.666Z,10.81
2024-04-16T11:30:26.458Z,10.71
2024-04-16T11:31:28.504Z,10.76
2024-04-16T11:32:32.945Z,10.48
2024-04-16T11:33:37.477Z,10.54
2024-04-16T11:34:43.016Z,10.45
2024-04-16T11:35:45.090Z,10.54
2024-04-16T11:36:50.332Z,10.73
2024-04-16T11:37:52.609Z,10.65
2024-04-16T11:38:54.848Z,10.64
2024-04-16T11:39:56.907Z,10.67
2024-04-16T11:41:04.997Z,10.68
2024-04-16T11:42:12.306Z,10.65
2024-04-16T11:43:15.019Z,10.67
2024-04-16T11:44:17.086Z,10.76
2024-04-16T11:45:20.279Z,10.71
2024-04-16T11:46:22.402Z,10.86
2024-04-16T11:47:24.426Z,10.79
2024-04-16T11:48:26.516Z,10.78
2024-04-16T11:49:28.731Z,10.79
2024-04-16T11:50:30.801Z,10.75
2024-04-16T11:51:34.294Z,10.75
2024-04-16T11:52:36.327Z,10.54
2024-04-16T11:53:39.490Z,10.62
2024-04-16T11:54:41.544Z,10.73
2024-04-16T11:55:44.586Z,10.58
2024-04-16T11:56:46.577Z,10.65
2024-04-16T11:57:48.573Z,10.72
2024-04-16T11:58:51.181Z,10.60
2024-04-16T11:59:57.708Z,10.65
2024-04-16T12:00:59.795Z,10.73
2024-04-16T12:02:02.072Z,10.82
2024-04-16T12:03:04.489Z,10.81
2024-04-16T12:04:07.804Z,10.68
2024-04-16T12:05:09.979Z,10.55
2024-04-16T12:06:12.036Z,10.71
2024-04-16T12:07:14.076Z,10.71
2024-04-16T12:08:16.050Z,10.68
2024-04-16T12:09:18.140Z,10.73
2024-04-16T12:10:20.242Z,10.92
2024-04-16T12:11:22.496Z,10.89
2024-04-16T12:12:24.508Z,10.92
2024-04-16T12:13:26.532Z,10.92
2024-04-16T12:14:28.605Z,10.99
2024-04-16T12:15:30.717Z,10.91
2024-04-16T12:16:35.544Z,10.85
2024-04-16T12:17:37.722Z,10.83
2024-04-16T12:18:39.962Z,10.97
2024-04-16T12:19:42.086Z,10.89
2024-04-16T12:20:44.938Z,10.75
2024-04-16T12:21:48.139Z,10.83
2024-04-16T12:22:50.156Z,10.78
2024-04-16T12:23:52.845Z,10.69
2024-04-16T12:24:54.905Z,10.71
2024-04-16T12:25:56.952Z,10.71
2024-04-16T12:26:58.857Z,10.64
2024-04-16T12:28:00.992Z,10.79
2024-04-16T12:29:02.936Z,10.76
2024-04-16T12:30:05.208Z,10.75
2024-04-16T12:31:07.277Z,10.78
2024-04-16T12:32:09.549Z,10.61
2024-04-16T12:33:15.960Z,10.73
2024-04-16T12:34:19.575Z,10.64
2024-04-16T12:35:21.937Z,10.49
2024-04-16T12:36:23.951Z,10.51
2024-04-16T12:37:26.010Z,10.65
2024-04-16T12:38:28.069Z,10.55
2024-04-16T12:39:30.096Z,10.61
2024-04-16T12:40:32.269Z,10.62
2024-04-16T12:41:34.466Z,10.72
2024-04-16T12:42:36.574Z,10.62
2024-04-16T12:43:38.937Z,10.38
2024-04-16T12:44:41.101Z,10.61
2024-04-16T12:45:43.077Z,10.65
2024-04-16T12:46:45.238Z,10.54
2024-04-16T12:47:47.378Z,10.49
2024-04-16T12:48:51.912Z,10.57
2024-04-16T12:49:54.544Z,10.51
2024-04-16T12:50:56.527Z,10.46
2024-04-16T12:51:58.594Z,10.54
2024-04-16T12:53:00.586Z,10.55
2024-04-16T12:54:02.629Z,10.62
2024-04-16T12:55:04.778Z,10.69
2024-04-16T12:56:08.754Z,10.69
2024-04-16T12:57:10.734Z,10.62
2024-04-16T12:58:13.021Z,10.57
2024-04-16T12:59:15.272Z,10.65
2024-04-16T13:00:17.267Z,10.72
2024-04-16T13:01:19.432Z,10.71
2024-04-16T13:02:21.455Z,10.65
2024-04-16T13:03:24.408Z,10.83
2024-04-16T13:04:26.535Z,10.85
2024-04-16T13:05:28.597Z,10.99
2024-04-16T13:06:34.268Z,11.00
2024-04-16T13:07:36.462Z,10.93
2024-04-16T13:08:38.765Z,10.96
2024-04-16T13:09:40.791Z,10.95
2024-04-16T13:10:43.313Z,10.85
2024-04-16T13:11:45.468Z,10.72
2024-04-16T13:12:48.488Z,10.86
2024-04-16T13:13:50.813Z,10.92
2024-04-16T13:14:53.205Z,10.64
2024-04-16T13:15:57.148Z,10.73
2024-04-16T13:16:59.201Z,10.78
2024-04-16T13:18:01.920Z,10.31
2024-04-16T13:19:04.211Z,10.48
2024-04-16T13:20:06.527Z,10.51
2024-04-16T13:21:10.654Z,10.52
2024-04-16T13:22:12.841Z,10.54
2024-04-16T13:23:14.885Z,10.67
2024-04-16T13:24:17.247Z,10.58
2024-04-16T13:25:19.343Z,10.41
2024-04-16T13:26:21.337Z,10.48
2024-04-16T13:27:23.329Z,10.60
2024-04-16T13:28:25.441Z,10.54
2024-04-16T13:29:28.623Z,10.37
2024-04-16T13:30:30.657Z,10.44
2024-04-16T13:31:33.099Z,10.31
2024-04-16T13:32:36.716Z,10.27
2024-04-16T13:33:39.092Z,10.38
2024-04-16T13:34:41.180Z,10.33
2024-04-16T13:35:43.209Z,10.41
2024-04-16T13:36:45.288Z,10.17
2024-04-16T13:37:47.388Z,10.37
2024-04-16T13:38:49.529Z,10.31
2024-04-16T13:39:51.527Z,10.33
2024-04-16T13:40:53.633Z,10.34
2024-04-16T13:41:56.379Z,10.48
2024-04-16T13:42:58.456Z,10.21
2024-04-16T13:44:00.503Z,10.35
2024-04-16T13:45:02.624Z,10.30
2024-04-16T13:46:04.811Z,10.38
2024-04-16T13:47:06.960Z,10.28
2024-04-16T13:48:13.454Z,10.37